sensor_id;sensor_type;location;lat;lon;timestamp;pressure;altitude;pressure_sealevel;temperature;humidity
46782;BME280;32541;46.298;11.506;2022-09-09T00:04:19;89443.88;;;14.12;91.41
46782;BME280;32541;46.298;11.506;2022-09-09T00:15:01;89432.59;;;13.97;92.89
46782;BME280;32541;46.298;11.506;2022-09-09T00:20:32;89434.56;;;13.71;94.02
46782;BME280;32541;46.298;11.506;2022-09-09T00:23:12;89435.06;;;13.67;94.22
46782;BME280;32541;46.298;11.506;2022-09-09T00:25:45;89435.41;;;13.73;94.23
46782;BME280;32541;46.298;11.506;2022-09-09T00:28:23;89430.59;;;13.74;93.94
46782;BME280;32541;46.298;11.506;2022-09-09T00:30:50;89429.06;;;13.71;94.12
46782;BME280;32541;46.298;11.506;2022-09-09T00:33:18;89428.06;;;13.78;94.31
46782;BME280;32541;46.298;11.506;2022-09-09T00:35:57;89416.53;;;13.70;94.57
46782;BME280;32541;46.298;11.506;2022-09-09T00:38:36;89412.84;;;13.54;96.07
46782;BME280;32541;46.298;11.506;2022-09-09T00:49:39;89403.50;;;13.35;96.52
46782;BME280;32541;46.298;11.506;2022-09-09T00:57:31;89408.41;;;13.25;96.95
46782;BME280;32541;46.298;11.506;2022-09-09T01:00:17;89406.25;;;13.24;97.70
46782;BME280;32541;46.298;11.506;2022-09-09T01:05:22;89402.78;;;13.35;97.31
46782;BME280;32541;46.298;11.506;2022-09-09T01:07:51;89414.53;;;13.24;97.15
46782;BME280;32541;46.298;11.506;2022-09-09T01:10:31;89415.13;;;13.22;97.50
46782;BME280;32541;46.298;11.506;2022-09-09T01:13:05;89416.31;;;13.43;96.83
46782;BME280;32541;46.298;11.506;2022-09-09T01:15:34;89414.19;;;13.41;96.58
46782;BME280;32541;46.298;11.506;2022-09-09T01:18:01;89417.31;;;13.35;96.47
46782;BME280;32541;46.298;11.506;2022-09-09T01:21:00;89420.91;;;13.26;96.84
46782;BME280;32541;46.298;11.506;2022-09-09T01:28:34;89431.94;;;13.15;97.33
46782;BME280;32541;46.298;11.506;2022-09-09T01:31:03;89426.63;;;13.07;96.48
46782;BME280;32541;46.298;11.506;2022-09-09T01:33:29;89428.53;;;12.93;96.94
46782;BME280;32541;46.298;11.506;2022-09-09T01:36:00;89429.25;;;12.94;96.88
46782;BME280;32541;46.298;11.506;2022-09-09T01:38:31;89426.00;;;12.86;97.57
46782;BME280;32541;46.298;11.506;2022-09-09T01:40:56;89438.13;;;12.92;97.39
46782;BME280;32541;46.298;11.506;2022-09-09T01:43:24;89429.97;;;12.94;97.61
46782;BME280;32541;46.298;11.506;2022-09-09T01:45:54;89438.59;;;12.89;99.28
46782;BME280;32541;46.298;11.506;2022-09-09T01:48:24;89440.03;;;12.90;99.78
46782;BME280;32541;46.298;11.506;2022-09-09T01:50:50;89432.47;;;12.90;100.00
46782;BME280;32541;46.298;11.506;2022-09-09T01:53:18;89434.50;;;12.90;100.00
46782;BME280;32541;46.298;11.506;2022-09-09T02:06:45;89432.25;;;12.98;99.58
46782;BME280;32541;46.298;11.506;2022-09-09T02:09:12;89417.84;;;12.99;99.85
46782;BME280;32541;46.298;11.506;2022-09-09T02:11:38;89416.66;;;13.02;99.89
46782;BME280;32541;46.298;11.506;2022-09-09T02:14:13;89419.34;;;13.12;99.38
46782;BME280;32541;46.298;11.506;2022-09-09T02:19:25;89420.41;;;13.18;98.61
46782;BME280;32541;46.298;11.506;2022-09-09T02:21:55;89413.94;;;13.14;98.63
46782;BME280;32541;46.298;11.506;2022-09-09T02:24:21;89412.69;;;13.05;98.23
46782;BME280;32541;46.298;11.506;2022-09-09T02:26:50;89405.28;;;13.08;98.02
46782;BME280;32541;46.298;11.506;2022-09-09T02:29:24;89403.38;;;13.10;97.13
46782;BME280;32541;46.298;11.506;2022-09-09T02:31:52;89394.09;;;12.94;98.05
46782;BME280;32541;46.298;11.506;2022-09-09T02:34:22;89386.88;;;12.89;98.43
46782;BME280;32541;46.298;11.506;2022-09-09T02:36:50;89386.28;;;12.79;98.85
46782;BME280;32541;46.298;11.506;2022-09-09T02:39:18;89377.53;;;12.82;99.09
46782;BME280;32541;46.298;11.506;2022-09-09T02:41:43;89387.69;;;12.80;99.18
46782;BME280;32541;46.298;11.506;2022-09-09T02:44:13;89396.13;;;12.82;98.81
46782;BME280;32541;46.298;11.506;2022-09-09T02:49:25;89399.78;;;12.52;100.00
46782;BME280;32541;46.298;11.506;2022-09-09T02:51:58;89397.28;;;12.23;100.00
46782;BME280;32541;46.298;11.506;2022-09-09T02:54:30;89393.09;;;12.22;100.00
46782;BME280;32541;46.298;11.506;2022-09-09T02:57:21;89377.78;;;12.31;100.00
46782;BME280;32541;46.298;11.506;2022-09-09T02:59:44;89383.03;;;12.26;100.00
46782;BME280;32541;46.298;11.506;2022-09-09T03:02:10;89376.31;;;12.30;100.00
46782;BME280;32541;46.298;11.506;2022-09-09T03:04:39;89376.81;;;12.26;100.00
46782;BME280;32541;46.298;11.506;2022-09-09T03:07:05;89377.41;;;12.24;100.00
46782;BME280;32541;46.298;11.506;2022-09-09T03:09:31;89383.38;;;12.21;100.00
46782;BME280;32541;46.298;11.506;2022-09-09T03:11:57;89379.66;;;12.16;100.00
46782;BME280;32541;46.298;11.506;2022-09-09T03:14:23;89382.91;;;12.24;100.00
46782;BME280;32541;46.298;11.506;2022-09-09T03:16:53;89380.50;;;12.19;100.00
46782;BME280;32541;46.298;11.506;2022-09-09T03:19:19;89372.44;;;12.11;100.00
46782;BME280;32541;46.298;11.506;2022-09-09T03:21:45;89374.34;;;12.09;100.00
46782;BME280;32541;46.298;11.506;2022-09-09T03:24:12;89371.00;;;12.10;100.00
46782;BME280;32541;46.298;11.506;2022-09-09T03:26:38;89388.38;;;12.13;100.00
46782;BME280;32541;46.298;11.506;2022-09-09T03:29:06;89385.63;;;12.13;100.00
46782;BME280;32541;46.298;11.506;2022-09-09T03:31:33;89385.03;;;12.14;100.00
46782;BME280;32541;46.298;11.506;2022-09-09T03:33:59;89371.63;;;12.20;99.20
46782;BME280;32541;46.298;11.506;2022-09-09T03:36:27;89366.72;;;12.19;99.45
46782;BME280;32541;46.298;11.506;2022-09-09T03:38:54;89381.19;;;12.08;99.77
46782;BME280;32541;46.298;11.506;2022-09-09T03:41:23;89374.56;;;12.01;100.00
46782;BME280;32541;46.298;11.506;2022-09-09T03:43:52;89380.97;;;12.15;99.70
46782;BME280;32541;46.298;11.506;2022-09-09T03:46:19;89376.50;;;12.10;99.70
46782;BME280;32541;46.298;11.506;2022-09-09T03:48:45;89386.94;;;12.12;100.00
46782;BME280;32541;46.298;11.506;2022-09-09T03:51:10;89376.72;;;12.03;99.70
46782;BME280;32541;46.298;11.506;2022-09-09T03:53:36;89366.13;;;11.88;100.00
46782;BME280;32541;46.298;11.506;2022-09-09T03:56:04;89375.81;;;11.89;100.00
46782;BME280;32541;46.298;11.506;2022-09-09T03:58:32;89366.97;;;11.90;100.00
46782;BME280;32541;46.298;11.506;2022-09-09T04:01:01;89358.22;;;11.94;99.90
46782;BME280;32541;46.298;11.506;2022-09-09T04:03:26;89359.41;;;11.91;99.88
46782;BME280;32541;46.298;11.506;2022-09-09T04:05:53;89365.81;;;11.72;100.00
46782;BME280;32541;46.298;11.506;2022-09-09T04:08:22;89351.88;;;11.70;100.00
46782;BME280;32541;46.298;11.506;2022-09-09T04:10:49;89347.69;;;11.69;100.00
46782;BME280;32541;46.298;11.506;2022-09-09T04:13:15;89330.16;;;11.64;100.00
46782;BME280;32541;46.298;11.506;2022-09-09T04:15:41;89328.59;;;11.61;100.00
46782;BME280;32541;46.298;11.506;2022-09-09T04:18:07;89337.47;;;11.60;100.00
46782;BME280;32541;46.298;11.506;2022-09-09T04:20:33;89332.75;;;11.51;100.00
46782;BME280;32541;46.298;11.506;2022-09-09T04:22:58;89344.03;;;11.55;100.00
46782;BME280;32541;46.298;11.506;2022-09-09T04:25:24;89344.41;;;11.61;100.00
46782;BME280;32541;46.298;11.506;2022-09-09T04:27:56;89332.75;;;11.72;100.00
46782;BME280;32541;46.298;11.506;2022-09-09T04:30:22;89331.13;;;11.79;100.00
46782;BME280;32541;46.298;11.506;2022-09-09T04:32:48;89331.97;;;11.81;100.00
46782;BME280;32541;46.298;11.506;2022-09-09T04:35:13;89324.72;;;11.76;100.00
46782;BME280;32541;46.298;11.506;2022-09-09T04:37:39;89335.75;;;11.76;100.00
46782;BME280;32541;46.298;11.506;2022-09-09T04:40:05;89342.38;;;11.61;100.00
46782;BME280;32541;46.298;11.506;2022-09-09T04:42:35;89340.72;;;11.68;100.00
46782;BME280;32541;46.298;11.506;2022-09-09T04:45:00;89354.22;;;11.64;100.00
46782;BME280;32541;46.298;11.506;2022-09-09T04:47:26;89347.03;;;11.59;100.00
46782;BME280;32541;46.298;11.506;2022-09-09T04:49:52;89345.13;;;11.61;100.00
46782;BME280;32541;46.298;11.506;2022-09-09T04:52:20;89340.59;;;11.66;100.00
46782;BME280;32541;46.298;11.506;2022-09-09T04:54:45;89347.41;;;11.65;100.00
46782;BME280;32541;46.298;11.506;2022-09-09T04:57:11;89348.47;;;11.18;100.00
46782;BME280;32541;46.298;11.506;2022-09-09T04:59:36;89339.94;;;11.13;100.00
46782;BME280;32541;46.298;11.506;2022-09-09T05:02:02;89346.13;;;11.24;100.00
46782;BME280;32541;46.298;11.506;2022-09-09T05:04:29;89354.88;;;11.32;100.00
46782;BME280;32541;46.298;11.506;2022-09-09T05:06:54;89347.19;;;11.40;100.00
46782;BME280;32541;46.298;11.506;2022-09-09T05:09:20;89356.53;;;11.46;100.00
46782;BME280;32541;46.298;11.506;2022-09-09T05:11:46;89362.44;;;11.52;100.00
46782;BME280;32541;46.298;11.506;2022-09-09T05:14:11;89366.06;;;11.55;100.00
46782;BME280;32541;46.298;11.506;2022-09-09T05:16:37;89351.19;;;11.69;100.00
46782;BME280;32541;46.298;11.506;2022-09-09T05:19:03;89359.97;;;11.78;100.00
46782;BME280;32541;46.298;11.506;2022-09-09T05:21:28;89366.44;;;11.82;100.00
46782;BME280;32541;46.298;11.506;2022-09-09T05:23:55;89373.66;;;11.87;100.00
46782;BME280;32541;46.298;11.506;2022-09-09T05:26:22;89381.88;;;11.76;100.00
46782;BME280;32541;46.298;11.506;2022-09-09T05:28:47;89386.25;;;11.90;100.00
46782;BME280;32541;46.298;11.506;2022-09-09T05:31:15;89369.97;;;11.94;100.00
46782;BME280;32541;46.298;11.506;2022-09-09T05:33:42;89367.81;;;11.93;100.00
46782;BME280;32541;46.298;11.506;2022-09-09T05:36:13;89365.63;;;11.91;100.00
46782;BME280;32541;46.298;11.506;2022-09-09T05:38:40;89377.91;;;12.00;100.00
46782;BME280;32541;46.298;11.506;2022-09-09T05:41:06;89371.69;;;11.99;100.00
46782;BME280;32541;46.298;11.506;2022-09-09T05:43:32;89383.31;;;12.09;100.00
46782;BME280;32541;46.298;11.506;2022-09-09T05:46:09;89391.78;;;12.23;100.00
46782;BME280;32541;46.298;11.506;2022-09-09T05:48:36;89392.38;;;12.21;100.00
46782;BME280;32541;46.298;11.506;2022-09-09T05:51:02;89383.50;;;12.23;100.00
46782;BME280;32541;46.298;11.506;2022-09-09T05:53:29;89383.75;;;12.27;100.00
46782;BME280;32541;46.298;11.506;2022-09-09T05:56:03;89382.81;;;12.34;100.00
46782;BME280;32541;46.298;11.506;2022-09-09T05:58:33;89390.75;;;12.40;100.00
46782;BME280;32541;46.298;11.506;2022-09-09T06:01:26;89392.44;;;12.45;100.00
46782;BME280;32541;46.298;11.506;2022-09-09T06:03:52;89397.66;;;12.62;100.00
46782;BME280;32541;46.298;11.506;2022-09-09T06:06:37;89400.63;;;12.66;100.00
46782;BME280;32541;46.298;11.506;2022-09-09T06:09:06;89394.75;;;12.60;100.00
46782;BME280;32541;46.298;11.506;2022-09-09T06:11:35;89389.38;;;12.62;100.00
46782;BME280;32541;46.298;11.506;2022-09-09T06:14:01;89381.97;;;12.76;100.00
46782;BME280;32541;46.298;11.506;2022-09-09T06:16:28;89380.03;;;12.90;100.00
46782;BME280;32541;46.298;11.506;2022-09-09T06:18:55;89368.91;;;12.88;100.00
46782;BME280;32541;46.298;11.506;2022-09-09T06:21:26;89371.88;;;12.92;100.00
46782;BME280;32541;46.298;11.506;2022-09-09T06:23:52;89377.91;;;12.89;100.00
46782;BME280;32541;46.298;11.506;2022-09-09T06:26:24;89377.16;;;12.88;100.00
46782;BME280;32541;46.298;11.506;2022-09-09T06:28:51;89364.44;;;12.95;100.00
46782;BME280;32541;46.298;11.506;2022-09-09T06:31:19;89357.13;;;12.99;100.00
46782;BME280;32541;46.298;11.506;2022-09-09T06:33:50;89350.53;;;13.04;100.00
46782;BME280;32541;46.298;11.506;2022-09-09T06:36:18;89344.06;;;13.11;100.00
46782;BME280;32541;46.298;11.506;2022-09-09T06:38:45;89343.34;;;12.99;100.00
46782;BME280;32541;46.298;11.506;2022-09-09T06:41:13;89341.13;;;12.51;100.00
46782;BME280;32541;46.298;11.506;2022-09-09T06:43:39;89340.84;;;12.36;100.00
46782;BME280;32541;46.298;11.506;2022-09-09T06:48:41;89322.91;;;12.58;100.00
46782;BME280;32541;46.298;11.506;2022-09-09T06:53:35;89329.91;;;12.82;100.00
46782;BME280;32541;46.298;11.506;2022-09-09T06:56:02;89334.69;;;12.93;100.00
46782;BME280;32541;46.298;11.506;2022-09-09T06:58:27;89337.34;;;13.03;100.00
46782;BME280;32541;46.298;11.506;2022-09-09T07:01:02;89327.88;;;13.17;100.00
46782;BME280;32541;46.298;11.506;2022-09-09T07:03:28;89324.25;;;13.26;100.00
46782;BME280;32541;46.298;11.506;2022-09-09T07:05:54;89320.66;;;13.35;100.00
46782;BME280;32541;46.298;11.506;2022-09-09T07:08:21;89326.75;;;13.46;100.00
46782;BME280;32541;46.298;11.506;2022-09-09T07:10:46;89327.06;;;13.63;100.00
46782;BME280;32541;46.298;11.506;2022-09-09T07:13:12;89333.88;;;13.74;100.00
46782;BME280;32541;46.298;11.506;2022-09-09T07:15:41;89330.25;;;13.83;100.00
46782;BME280;32541;46.298;11.506;2022-09-09T07:18:06;89327.00;;;13.86;100.00
46782;BME280;32541;46.298;11.506;2022-09-09T07:20:32;89323.25;;;13.93;100.00
46782;BME280;32541;46.298;11.506;2022-09-09T07:22:57;89335.53;;;14.16;100.00
46782;BME280;32541;46.298;11.506;2022-09-09T07:25:24;89347.09;;;13.75;100.00
46782;BME280;32541;46.298;11.506;2022-09-09T07:27:51;89354.66;;;13.75;100.00
46782;BME280;32541;46.298;11.506;2022-09-09T07:30:17;89361.31;;;13.58;100.00
46782;BME280;32541;46.298;11.506;2022-09-09T07:32:44;89361.09;;;13.43;100.00
46782;BME280;32541;46.298;11.506;2022-09-09T07:35:10;89361.09;;;13.43;99.88
46782;BME280;32541;46.298;11.506;2022-09-09T07:37:36;89344.50;;;13.54;100.00
46782;BME280;32541;46.298;11.506;2022-09-09T07:40:02;89354.91;;;13.67;100.00
46782;BME280;32541;46.298;11.506;2022-09-09T07:42:28;89358.88;;;13.76;100.00
46782;BME280;32541;46.298;11.506;2022-09-09T07:44:54;89355.31;;;13.99;99.28
46782;BME280;32541;46.298;11.506;2022-09-09T07:47:20;89355.34;;;13.87;98.69
46782;BME280;32541;46.298;11.506;2022-09-09T07:49:46;89354.03;;;13.88;97.76
46782;BME280;32541;46.298;11.506;2022-09-09T07:52:12;89337.06;;;13.93;98.75
46782;BME280;32541;46.298;11.506;2022-09-09T07:54:37;89332.94;;;14.31;100.00
46782;BME280;32541;46.298;11.506;2022-09-09T07:57:03;89314.91;;;14.56;100.00
46782;BME280;32541;46.298;11.506;2022-09-09T07:59:29;89312.50;;;14.75;99.80
46782;BME280;32541;46.298;11.506;2022-09-09T08:01:55;89324.31;;;15.03;97.29
46782;BME280;32541;46.298;11.506;2022-09-09T08:04:23;89335.16;;;14.46;97.32
46782;BME280;32541;46.298;11.506;2022-09-09T08:06:53;89335.34;;;14.37;97.58
46782;BME280;32541;46.298;11.506;2022-09-09T08:09:20;89335.59;;;14.29;95.85
46782;BME280;32541;46.298;11.506;2022-09-09T08:11:46;89341.56;;;14.12;97.69
46782;BME280;32541;46.298;11.506;2022-09-09T08:14:12;89348.94;;;13.96;97.81
46782;BME280;32541;46.298;11.506;2022-09-09T08:16:42;89349.91;;;14.01;95.77
46782;BME280;32541;46.298;11.506;2022-09-09T08:19:08;89350.63;;;14.01;96.69
46782;BME280;32541;46.298;11.506;2022-09-09T08:21:35;89357.91;;;14.08;95.50
46782;BME280;32541;46.298;11.506;2022-09-09T08:24:02;89369.13;;;14.10;92.64
46782;BME280;32541;46.298;11.506;2022-09-09T08:26:35;89365.34;;;14.17;93.22
46782;BME280;32541;46.298;11.506;2022-09-09T08:29:03;89371.31;;;14.25;93.17
46782;BME280;32541;46.298;11.506;2022-09-09T08:31:34;89368.06;;;14.29;93.01
46782;BME280;32541;46.298;11.506;2022-09-09T08:34:00;89380.09;;;14.33;91.35
46782;BME280;32541;46.298;11.506;2022-09-09T08:36:29;89377.53;;;14.37;91.31
46782;BME280;32541;46.298;11.506;2022-09-09T08:38:57;89392.34;;;14.42;90.70
46782;BME280;32541;46.298;11.506;2022-09-09T08:53:00;89402.28;;;14.72;93.11
46782;BME280;32541;46.298;11.506;2022-09-09T08:58:18;89419.06;;;14.26;93.40
46782;BME280;32541;46.298;11.506;2022-09-09T09:11:58;89413.19;;;13.71;100.00
46782;BME280;32541;46.298;11.506;2022-09-09T09:14:30;89415.94;;;13.83;100.00
46782;BME280;32541;46.298;11.506;2022-09-09T09:19:33;89431.63;;;12.88;100.00
46782;BME280;32541;46.298;11.506;2022-09-09T09:22:41;89430.56;;;12.48;100.00
46782;BME280;32541;46.298;11.506;2022-09-09T09:30:19;89414.63;;;12.47;100.00
46782;BME280;32541;46.298;11.506;2022-09-09T09:32:53;89418.59;;;12.44;100.00
46782;BME280;32541;46.298;11.506;2022-09-09T09:35:29;89415.03;;;12.20;100.00
46782;BME280;32541;46.298;11.506;2022-09-09T09:37:57;89418.47;;;12.20;100.00
46782;BME280;32541;46.298;11.506;2022-09-09T09:40:22;89413.72;;;12.33;100.00
46782;BME280;32541;46.298;11.506;2022-09-09T09:42:57;89414.00;;;12.37;100.00
46782;BME280;32541;46.298;11.506;2022-09-09T09:45:31;89423.00;;;12.37;100.00
46782;BME280;32541;46.298;11.506;2022-09-09T09:47:59;89434.06;;;12.49;100.00
46782;BME280;32541;46.298;11.506;2022-09-09T09:50:24;89460.81;;;12.25;100.00
46782;BME280;32541;46.298;11.506;2022-09-09T09:52:55;89454.06;;;12.38;100.00
46782;BME280;32541;46.298;11.506;2022-09-09T09:55:22;89452.13;;;12.40;100.00
46782;BME280;32541;46.298;11.506;2022-09-09T09:57:49;89459.69;;;12.40;100.00
46782;BME280;32541;46.298;11.506;2022-09-09T10:00:18;89460.56;;;12.54;100.00
46782;BME280;32541;46.298;11.506;2022-09-09T10:02:45;89473.97;;;12.48;100.00
46782;BME280;32541;46.298;11.506;2022-09-09T10:05:18;89480.56;;;12.43;100.00
46782;BME280;32541;46.298;11.506;2022-09-09T10:07:45;89481.91;;;12.53;100.00
46782;BME280;32541;46.298;11.506;2022-09-09T10:10:16;89485.56;;;12.35;100.00
46782;BME280;32541;46.298;11.506;2022-09-09T10:13:00;89476.63;;;12.46;100.00
46782;BME280;32541;46.298;11.506;2022-09-09T10:16:06;89474.34;;;12.54;100.00
46782;BME280;32541;46.298;11.506;2022-09-09T10:38:39;89468.41;;;12.69;100.00
46782;BME280;32541;46.298;11.506;2022-09-09T10:40:42;89459.97;;;12.88;100.00
46782;BME280;32541;46.298;11.506;2022-09-09T10:59:49;89436.78;;;14.58;99.53
46782;BME280;32541;46.298;11.506;2022-09-09T11:02:30;89436.94;;;14.73;98.26
46782;BME280;32541;46.298;11.506;2022-09-09T11:07:40;89432.22;;;15.01;94.63
46782;BME280;32541;46.298;11.506;2022-09-09T11:10:36;89437.59;;;15.11;91.24
46782;BME280;32541;46.298;11.506;2022-09-09T11:13:09;89431.16;;;15.20;90.10
46782;BME280;32541;46.298;11.506;2022-09-09T11:15:44;89435.00;;;15.15;88.82
46782;BME280;32541;46.298;11.506;2022-09-09T11:18:19;89428.78;;;15.14;88.39
46782;BME280;32541;46.298;11.506;2022-09-09T11:20:47;89424.06;;;15.30;89.66
46782;BME280;32541;46.298;11.506;2022-09-09T11:23:25;89413.72;;;15.31;89.74
46782;BME280;32541;46.298;11.506;2022-09-09T11:25:55;89414.13;;;15.39;89.73
46782;BME280;32541;46.298;11.506;2022-09-09T11:32:00;89410.94;;;15.44;91.05
46782;BME280;32541;46.298;11.506;2022-09-09T11:37:51;89404.75;;;15.85;90.33
46782;BME280;32541;46.298;11.506;2022-09-09T11:40:26;89393.19;;;16.18;87.95
46782;BME280;32541;46.298;11.506;2022-09-09T11:43:23;89390.69;;;16.37;88.98
46782;BME280;32541;46.298;11.506;2022-09-09T11:45:54;89381.16;;;16.70;86.94
46782;BME280;32541;46.298;11.506;2022-09-09T11:48:32;89381.75;;;16.97;83.06
46782;BME280;32541;46.298;11.506;2022-09-09T11:53:25;89374.06;;;17.27;82.69
46782;BME280;32541;46.298;11.506;2022-09-09T11:56:11;89384.47;;;16.23;83.99
46782;BME280;32541;46.298;11.506;2022-09-09T11:58:42;89375.91;;;15.76;89.57
46782;BME280;32541;46.298;11.506;2022-09-09T12:01:37;89370.84;;;15.86;89.49
46782;BME280;32541;46.298;11.506;2022-09-09T12:04:06;89362.94;;;15.81;89.42
46782;BME280;32541;46.298;11.506;2022-09-09T12:06:53;89359.84;;;16.02;84.46
46782;BME280;32541;46.298;11.506;2022-09-09T12:14:54;89369.94;;;15.54;83.34
46782;BME280;32541;46.298;11.506;2022-09-09T12:17:23;89363.56;;;15.79;82.15
46782;BME280;32541;46.298;11.506;2022-09-09T12:20:18;89368.50;;;15.67;85.12
46782;BME280;32541;46.298;11.506;2022-09-09T12:25:57;89370.72;;;15.98;82.85
46782;BME280;32541;46.298;11.506;2022-09-09T12:28:45;89371.13;;;16.06;81.86
46782;BME280;32541;46.298;11.506;2022-09-09T12:31:40;89365.25;;;16.13;80.01
46782;BME280;32541;46.298;11.506;2022-09-09T12:34:11;89364.81;;;16.19;78.35
46782;BME280;32541;46.298;11.506;2022-09-09T12:36:43;89360.97;;;15.97;85.34
46782;BME280;32541;46.298;11.506;2022-09-09T12:39:24;89362.22;;;15.80;85.13
46782;BME280;32541;46.298;11.506;2022-09-09T12:41:53;89360.75;;;16.06;84.71
46782;BME280;32541;46.298;11.506;2022-09-09T12:44:25;89357.72;;;16.30;84.05
46782;BME280;32541;46.298;11.506;2022-09-09T12:46:53;89359.13;;;16.44;78.18
46782;BME280;32541;46.298;11.506;2022-09-09T12:49:34;89360.34;;;16.55;80.68
46782;BME280;32541;46.298;11.506;2022-09-09T12:52:02;89345.94;;;16.58;78.94
46782;BME280;32541;46.298;11.506;2022-09-09T12:54:31;89342.13;;;16.52;77.95
46782;BME280;32541;46.298;11.506;2022-09-09T12:56:57;89340.81;;;16.39;79.77
46782;BME280;32541;46.298;11.506;2022-09-09T12:59:34;89345.22;;;16.15;77.82
46782;BME280;32541;46.298;11.506;2022-09-09T13:02:00;89337.00;;;16.17;78.71
46782;BME280;32541;46.298;11.506;2022-09-09T13:04:26;89339.19;;;16.34;76.71
46782;BME280;32541;46.298;11.506;2022-09-09T13:06:51;89332.31;;;16.35;75.63
46782;BME280;32541;46.298;11.506;2022-09-09T13:09:18;89335.56;;;16.16;74.04
46782;BME280;32541;46.298;11.506;2022-09-09T13:11:50;89333.94;;;16.11;74.81
46782;BME280;32541;46.298;11.506;2022-09-09T13:14:30;89320.72;;;16.25;74.34
46782;BME280;32541;46.298;11.506;2022-09-09T13:16:59;89318.09;;;16.43;77.12
46782;BME280;32541;46.298;11.506;2022-09-09T13:19:29;89317.47;;;16.74;78.17
46782;BME280;32541;46.298;11.506;2022-09-09T13:21:57;89315.16;;;16.99;78.83
46782;BME280;32541;46.298;11.506;2022-09-09T13:24:29;89317.88;;;17.13;76.65
46782;BME280;32541;46.298;11.506;2022-09-09T13:26:57;89313.81;;;17.47;73.56
46782;BME280;32541;46.298;11.506;2022-09-09T13:29:23;89311.38;;;17.71;74.18
46782;BME280;32541;46.298;11.506;2022-09-09T13:31:48;89294.63;;;18.20;73.86
46782;BME280;32541;46.298;11.506;2022-09-09T13:34:29;89297.44;;;18.55;72.02
46782;BME280;32541;46.298;11.506;2022-09-09T13:37:00;89299.38;;;18.35;68.42
46782;BME280;32541;46.298;11.506;2022-09-09T13:39:28;89298.19;;;18.05;75.19
46782;BME280;32541;46.298;11.506;2022-09-09T13:41:53;89295.31;;;18.03;69.86
46782;BME280;32541;46.298;11.506;2022-09-09T13:44:29;89292.53;;;18.20;68.91
46782;BME280;32541;46.298;11.506;2022-09-09T13:47:04;89293.78;;;18.51;65.60
46782;BME280;32541;46.298;11.506;2022-09-09T13:49:30;89292.78;;;18.09;66.34
46782;BME280;32541;46.298;11.506;2022-09-09T13:52:13;89292.44;;;18.01;64.49
46782;BME280;32541;46.298;11.506;2022-09-09T13:54:39;89287.22;;;18.44;63.92
46782;BME280;32541;46.298;11.506;2022-09-09T13:57:05;89285.91;;;18.63;65.30
46782;BME280;32541;46.298;11.506;2022-09-09T13:59:39;89279.44;;;18.76;65.22
46782;BME280;32541;46.298;11.506;2022-09-09T14:02:05;89281.59;;;18.77;63.23
46782;BME280;32541;46.298;11.506;2022-09-09T14:04:30;89270.06;;;18.32;63.30
46782;BME280;32541;46.298;11.506;2022-09-09T14:06:56;89278.63;;;18.38;61.43
46782;BME280;32541;46.298;11.506;2022-09-09T14:09:21;89272.03;;;18.82;59.79
46782;BME280;32541;46.298;11.506;2022-09-09T14:11:47;89267.13;;;19.01;62.61
46782;BME280;32541;46.298;11.506;2022-09-09T14:14:12;89270.38;;;18.40;63.03
46782;BME280;32541;46.298;11.506;2022-09-09T14:16:38;89263.91;;;18.18;65.01
46782;BME280;32541;46.298;11.506;2022-09-09T14:19:03;89264.09;;;18.04;62.87
46782;BME280;32541;46.298;11.506;2022-09-09T14:21:29;89261.69;;;18.14;65.02
46782;BME280;32541;46.298;11.506;2022-09-09T14:23:54;89258.75;;;18.28;62.35
46782;BME280;32541;46.298;11.506;2022-09-09T14:26:21;89254.53;;;18.62;60.81
46782;BME280;32541;46.298;11.506;2022-09-09T14:28:47;89255.91;;;18.44;58.25
46782;BME280;32541;46.298;11.506;2022-09-09T14:31:13;89246.97;;;18.82;61.44
46782;BME280;32541;46.298;11.506;2022-09-09T14:33:39;89250.41;;;19.01;58.29
46782;BME280;32541;46.298;11.506;2022-09-09T14:36:05;89261.88;;;19.09;60.63
46782;BME280;32541;46.298;11.506;2022-09-09T14:38:36;89253.13;;;19.18;57.98
46782;BME280;32541;46.298;11.506;2022-09-09T14:41:16;89254.69;;;19.41;57.38
46782;BME280;32541;46.298;11.506;2022-09-09T14:43:42;89248.03;;;19.50;57.89
46782;BME280;32541;46.298;11.506;2022-09-09T14:46:09;89249.47;;;19.51;57.93
46782;BME280;32541;46.298;11.506;2022-09-09T14:48:35;89252.88;;;19.69;56.41
46782;BME280;32541;46.298;11.506;2022-09-09T14:51:07;89247.19;;;19.87;55.48
46782;BME280;32541;46.298;11.506;2022-09-09T14:53:32;89250.84;;;19.91;54.29
46782;BME280;32541;46.298;11.506;2022-09-09T14:56:19;89243.09;;;20.10;53.80
46782;BME280;32541;46.298;11.506;2022-09-09T14:58:45;89247.09;;;20.05;54.66
46782;BME280;32541;46.298;11.506;2022-09-09T15:01:13;89254.63;;;19.59;52.50
46782;BME280;32541;46.298;11.506;2022-09-09T15:03:40;89259.09;;;19.87;52.67
46782;BME280;32541;46.298;11.506;2022-09-09T15:06:08;89262.66;;;19.90;49.66
46782;BME280;32541;46.298;11.506;2022-09-09T15:08:38;89260.97;;;19.61;56.23
46782;BME280;32541;46.298;11.506;2022-09-09T15:11:05;89258.53;;;19.71;54.80
46782;BME280;32541;46.298;11.506;2022-09-09T15:13:34;89253.81;;;19.76;52.75
46782;BME280;32541;46.298;11.506;2022-09-09T15:16:18;89255.31;;;19.20;55.87
46782;BME280;32541;46.298;11.506;2022-09-09T15:18:45;89251.16;;;19.60;54.97
46782;BME280;32541;46.298;11.506;2022-09-09T15:21:16;89253.00;;;19.34;54.75
46782;BME280;32541;46.298;11.506;2022-09-09T15:23:44;89263.53;;;18.78;53.09
46782;BME280;32541;46.298;11.506;2022-09-09T15:26:10;89256.41;;;18.93;55.29